createdAt,value
2023-04-30T00:00:26.990Z,98620.69
2023-04-30T00:02:53.420Z,98636.16
2023-04-30T00:05:19.812Z,98643.88
2023-04-30T00:07:46.132Z,98644.22
2023-04-30T00:10:12.460Z,98652.13
2023-04-30T00:12:38.850Z,98654.56
2023-04-30T00:15:05.658Z,98655.94
2023-04-30T00:17:32.041Z,98657.78
2023-04-30T00:19:58.424Z,98661.09
2023-04-30T00:22:24.734Z,98659.41
2023-04-30T00:24:51.077Z,98657.78
2023-04-30T00:27:17.414Z,98657.28
2023-04-30T00:29:43.792Z,98661.22
2023-04-30T00:32:10.209Z,98666.06
2023-04-30T00:34:36.571Z,98672.13
2023-04-30T00:37:02.905Z,98679.16
2023-04-30T00:39:29.219Z,98673.44
2023-04-30T00:41:55.528Z,98678.97
2023-04-30T00:44:21.849Z,98683.28
2023-04-30T00:46:48.163Z,98683.56
2023-04-30T00:49:14.487Z,98671.09
2023-04-30T00:51:40.904Z,98684.97
2023-04-30T00:54:07.380Z,98692.63
2023-04-30T00:56:33.782Z,98677.09
2023-04-30T00:59:00.152Z,98688.09
2023-04-30T01:01:27.433Z,98697.16
2023-04-30T01:03:53.786Z,98696.91
2023-04-30T01:06:20.140Z,98694.72
2023-04-30T01:08:47.045Z,98697.69
2023-04-30T01:11:33.012Z,98696.28
2023-04-30T01:14:06.209Z,98698.88
2023-04-30T01:16:36.382Z,98705.91
2023-04-30T01:19:10.306Z,98715.72
2023-04-30T01:21:39.218Z,98708.31
2023-04-30T01:24:24.895Z,98712.47
2023-04-30T01:27:07.569Z,98715.81
2023-04-30T01:29:35.496Z,98723.06
2023-04-30T01:32:01.994Z,98723.72
2023-04-30T01:34:28.339Z,98711.06
2023-04-30T01:37:21.758Z,98736.84
2023-04-30T01:40:01.775Z,98737.91
2023-04-30T01:42:45.609Z,98715.09
2023-04-30T01:45:42.863Z,98738.00
2023-04-30T01:48:30.064Z,98752.22
2023-04-30T01:51:01.866Z,98753.38
2023-04-30T01:53:33.210Z,98761.72
2023-04-30T01:56:02.437Z,98750.94
2023-04-30T01:58:29.932Z,98757.69
2023-04-30T02:00:56.252Z,98760.31
2023-04-30T02:03:22.640Z,98763.09
2023-04-30T02:05:50.326Z,98770.25
2023-04-30T02:08:16.641Z,98775.66
2023-04-30T02:10:42.965Z,98771.63
2023-04-30T02:13:09.273Z,98777.69
2023-04-30T02:15:35.604Z,98784.06
2023-04-30T02:18:01.927Z,98776.47
2023-04-30T02:20:28.412Z,98778.53
2023-04-30T02:22:54.743Z,98772.19
2023-04-30T02:25:21.058Z,98774.81
2023-04-30T02:27:47.384Z,98784.31
2023-04-30T02:30:13.712Z,98787.53
2023-04-30T02:32:40.057Z,98791.91
2023-04-30T02:35:06.577Z,98774.88
2023-04-30T02:37:32.886Z,98796.41
2023-04-30T02:39:59.433Z,98799.97
2023-04-30T02:42:25.931Z,98801.22
2023-04-30T02:44:52.252Z,98811.75
2023-04-30T02:47:18.584Z,98806.63
2023-04-30T02:49:44.898Z,98806.47
2023-04-30T02:52:11.245Z,98818.72
2023-04-30T02:54:37.578Z,98815.50
2023-04-30T02:57:03.879Z,98817.28
2023-04-30T02:59:30.217Z,98816.53
2023-04-30T03:01:56.534Z,98826.00
2023-04-30T03:04:22.882Z,98826.31
2023-04-30T03:06:49.184Z,98818.69
2023-04-30T03:09:15.523Z,98819.00
2023-04-30T03:11:41.835Z,98819.59
2023-04-30T03:14:08.152Z,98821.72
2023-04-30T03:16:34.507Z,98828.06
2023-04-30T03:19:00.870Z,98831.28
2023-04-30T03:21:27.170Z,98823.78
2023-04-30T03:23:53.493Z,98836.28
2023-04-30T03:26:20.385Z,98838.72
2023-04-30T03:28:46.713Z,98825.19
2023-04-30T03:31:13.045Z,98834.69
2023-04-30T03:33:39.402Z,98834.16
2023-04-30T03:36:06.047Z,98838.09
2023-04-30T03:38:32.340Z,98821.38
2023-04-30T03:40:58.694Z,98840.34
2023-04-30T03:43:25.007Z,98837.50
2023-04-30T03:45:51.366Z,98829.03
2023-04-30T03:48:18.040Z,98842.03
2023-04-30T03:50:44.674Z,98848.53
2023-04-30T03:53:10.985Z,98854.16
2023-04-30T03:55:37.557Z,98846.13
2023-04-30T03:58:03.938Z,98856.47
2023-04-30T04:00:30.293Z,98844.00
2023-04-30T04:02:58.248Z,98842.78
2023-04-30T04:05:24.922Z,98863.22
2023-04-30T04:07:51.332Z,98859.88
2023-04-30T04:10:17.657Z,98873.16
2023-04-30T04:12:43.972Z,98877.94
2023-04-30T04:15:10.457Z,98887.50
2023-04-30T04:17:36.838Z,98871.84
2023-04-30T04:20:03.275Z,98889.28
2023-04-30T04:22:29.686Z,98889.59
2023-04-30T04:24:55.999Z,98885.72
2023-04-30T04:27:22.312Z,98886.19
2023-04-30T04:29:48.634Z,98905.09
2023-04-30T04:32:15.053Z,98903.47
2023-04-30T04:34:41.368Z,98897.88
2023-04-30T04:37:07.685Z,98904.97
2023-04-30T04:39:33.986Z,98901.72
2023-04-30T04:42:00.303Z,98906.28
2023-04-30T04:44:26.676Z,98899.22
2023-04-30T04:46:53.161Z,98906.28
2023-04-30T04:49:19.888Z,98919.72
2023-04-30T04:51:46.196Z,98892.63
2023-04-30T04:54:12.614Z,98911.28
2023-04-30T04:56:38.945Z,98916.72
2023-04-30T04:59:05.285Z,98904.63
2023-04-30T05:01:31.668Z,98910.94
2023-04-30T05:03:58.228Z,98921.56
2023-04-30T05:06:24.703Z,98920.97
2023-04-30T05:08:51.042Z,98926.56
2023-04-30T05:11:17.353Z,98921.16
2023-04-30T05:13:43.698Z,98906.09
2023-04-30T05:16:10.074Z,98922.13
2023-04-30T05:18:36.479Z,98932.78
2023-04-30T05:21:02.859Z,98925.38
2023-04-30T05:23:29.220Z,98945.56
2023-04-30T05:25:55.538Z,98953.91
2023-04-30T05:28:21.856Z,98927.88
2023-04-30T05:30:48.201Z,98954.25
2023-04-30T05:33:14.527Z,98940.16
2023-04-30T05:35:40.854Z,98938.09
2023-04-30T05:38:07.173Z,98952.09
2023-04-30T05:40:33.483Z,98946.69
2023-04-30T05:42:59.826Z,98949.97
2023-04-30T05:45:26.141Z,98952.44
2023-04-30T05:47:52.605Z,98958.34
2023-04-30T05:50:19.023Z,98955.38
2023-04-30T05:52:45.365Z,98943.31
2023-04-30T05:55:11.801Z,98952.59
2023-04-30T05:57:38.124Z,98954.78
2023-04-30T06:00:04.865Z,98948.00
2023-04-30T06:02:31.265Z,98948.78
2023-04-30T06:04:57.880Z,98947.22
2023-04-30T06:07:24.235Z,98948.19
2023-04-30T06:09:50.628Z,98946.78
2023-04-30T06:12:16.950Z,98938.69
2023-04-30T06:14:43.296Z,98950.66
2023-04-30T06:17:09.613Z,98953.28
2023-04-30T06:19:35.979Z,98956.09
2023-04-30T06:22:02.308Z,98950.34
2023-04-30T06:24:28.677Z,98950.19
2023-04-30T06:26:55.000Z,98951.34
2023-04-30T06:29:22.651Z,98954.22
2023-04-30T06:31:48.990Z,98952.53
2023-04-30T06:34:15.368Z,98946.44
2023-04-30T06:36:41.756Z,98949.56
2023-04-30T06:39:08.119Z,98955.94
2023-04-30T06:41:34.455Z,98956.13
2023-04-30T06:44:00.775Z,98954.44
2023-04-30T06:46:27.148Z,98958.47
2023-04-30T06:48:53.489Z,98962.63
2023-04-30T06:51:19.795Z,98949.00
2023-04-30T06:53:46.115Z,98955.34
2023-04-30T06:56:12.501Z,98955.34
2023-04-30T06:58:38.819Z,98951.03
2023-04-30T07:01:05.195Z,98954.16
2023-04-30T07:03:31.607Z,98953.84
2023-04-30T07:05:57.987Z,98945.59
2023-04-30T07:08:25.605Z,98952.28
2023-04-30T07:10:51.930Z,98962.84
2023-04-30T07:13:18.276Z,98965.94
2023-04-30T07:15:44.751Z,98962.69
2023-04-30T07:18:11.443Z,98962.38
2023-04-30T07:20:37.906Z,98969.03
2023-04-30T07:23:04.279Z,98983.16
2023-04-30T07:25:30.688Z,98965.47
2023-04-30T07:27:57.045Z,98961.13
2023-04-30T07:30:25.257Z,98963.28
2023-04-30T07:32:51.837Z,98972.47
2023-04-30T07:35:18.184Z,98968.75
2023-04-30T07:37:44.533Z,98961.75
2023-04-30T07:40:15.054Z,98961.91
2023-04-30T07:42:43.742Z,98974.50
2023-04-30T07:45:10.059Z,98958.66
2023-04-30T07:47:36.515Z,98970.00
2023-04-30T07:50:02.947Z,98975.09
2023-04-30T07:52:29.262Z,98982.56
2023-04-30T07:54:55.660Z,98970.91
2023-04-30T07:57:21.987Z,98985.97
2023-04-30T07:59:50.544Z,98966.25
2023-04-30T08:02:18.761Z,98972.16
2023-04-30T08:04:45.115Z,98963.44
2023-04-30T08:07:11.455Z,98984.88
2023-04-30T08:09:37.846Z,98983.78
2023-04-30T08:12:04.513Z,98982.53
2023-04-30T08:14:32.486Z,98992.13
2023-04-30T08:16:58.926Z,98993.84
2023-04-30T08:19:25.350Z,98994.47
2023-04-30T08:21:51.688Z,98988.88
2023-04-30T08:24:17.987Z,98996.78
2023-04-30T08:26:44.296Z,98988.25
2023-04-30T08:29:11.674Z,98993.50
2023-04-30T08:31:38.239Z,99001.63
2023-04-30T08:34:04.762Z,98993.50
2023-04-30T08:36:31.161Z,98999.72
2023-04-30T08:38:57.534Z,98998.75
2023-04-30T08:41:26.452Z,98993.91
2023-04-30T08:43:53.589Z,99000.22
2023-04-30T08:46:23.743Z,98999.88
2023-04-30T08:48:50.236Z,98999.66
2023-04-30T08:51:17.688Z,99004.53
2023-04-30T08:53:44.567Z,98993.38
2023-04-30T08:56:11.215Z,98987.69
2023-04-30T08:58:37.581Z,98994.53
2023-04-30T09:01:06.824Z,98986.63
2023-04-30T09:03:33.349Z,98977.03
2023-04-30T09:05:59.782Z,98988.75
2023-04-30T09:08:41.997Z,98979.03
2023-04-30T09:11:28.254Z,98976.84
2023-04-30T09:13:56.879Z,98990.91
2023-04-30T09:16:24.970Z,98994.00
2023-04-30T09:18:52.275Z,98992.75
2023-04-30T09:21:40.172Z,98994.81
2023-04-30T09:24:06.546Z,98977.72
2023-04-30T09:26:37.486Z,98988.06
2023-04-30T09:29:04.986Z,98984.03
2023-04-30T09:31:31.354Z,98986.28
2023-04-30T09:33:57.680Z,98990.28
2023-04-30T09:36:24.032Z,98982.03
2023-04-30T09:38:50.342Z,98976.00
2023-04-30T09:41:29.870Z,98982.00
2023-04-30T09:43:56.848Z,98988.75
2023-04-30T09:46:34.201Z,98994.50
2023-04-30T09:49:02.190Z,98984.59
2023-04-30T09:51:29.142Z,98975.81
2023-04-30T09:53:55.618Z,98978.91
2023-04-30T09:56:26.320Z,98970.03
2023-04-30T09:58:54.403Z,98964.88
2023-04-30T10:01:22.012Z,98971.53
2023-04-30T10:03:49.380Z,98979.19
2023-04-30T10:06:16.284Z,98970.97
2023-04-30T10:08:43.780Z,98976.16
2023-04-30T10:11:10.958Z,98968.44
2023-04-30T10:13:54.165Z,98965.31
2023-04-30T10:16:44.446Z,98957.59
2023-04-30T10:19:14.476Z,98957.31
2023-04-30T10:21:42.686Z,98955.53
2023-04-30T10:24:10.244Z,98967.00
2023-04-30T10:26:36.713Z,98964.78
2023-04-30T10:29:03.825Z,98956.84
2023-04-30T10:31:30.738Z,98949.13
2023-04-30T10:34:00.046Z,98954.44
2023-04-30T10:36:33.080Z,98942.25
2023-04-30T10:38:59.899Z,98947.38
2023-04-30T10:41:26.550Z,98934.06
2023-04-30T10:43:56.788Z,98938.97
2023-04-30T10:46:24.062Z,98928.69
2023-04-30T10:48:53.085Z,98943.31
2023-04-30T10:51:19.996Z,98936.31
2023-04-30T10:53:49.445Z,98942.78
2023-04-30T10:56:29.766Z,98939.03
2023-04-30T10:58:59.084Z,98936.13
2023-04-30T11:01:25.443Z,98920.66
2023-04-30T11:04:10.267Z,98930.09
2023-04-30T11:07:01.256Z,98923.28
2023-04-30T11:09:37.820Z,98927.25
2023-04-30T11:12:10.786Z,98927.00
2023-04-30T11:14:40.845Z,98920.06
2023-04-30T11:17:07.285Z,98913.28
2023-04-30T11:19:33.712Z,98911.53
2023-04-30T11:22:02.965Z,98914.22
2023-04-30T11:24:55.295Z,98910.28
2023-04-30T11:27:26.500Z,98909.00
2023-04-30T11:29:53.973Z,98897.69
2023-04-30T11:32:22.444Z,98895.47
2023-04-30T11:34:49.262Z,98880.66
2023-04-30T11:37:30.965Z,98883.38
2023-04-30T11:39:57.619Z,98893.34
2023-04-30T11:42:23.991Z,98901.75
2023-04-30T11:44:50.337Z,98890.94
2023-04-30T11:47:16.698Z,98894.56
2023-04-30T11:49:43.449Z,98898.59
2023-04-30T11:52:09.773Z,98893.22
2023-04-30T11:54:37.143Z,98890.69
2023-04-30T11:57:03.556Z,98876.81
2023-04-30T11:59:40.294Z,98884.34
2023-04-30T12:02:07.807Z,98881.88
2023-04-30T12:04:34.290Z,98890.81
2023-04-30T12:07:00.886Z,98879.16
2023-04-30T12:09:27.409Z,98883.81
2023-04-30T12:11:53.710Z,98885.06
2023-04-30T12:14:24.816Z,98881.81
2023-04-30T12:16:52.314Z,98886.56
2023-04-30T12:19:20.397Z,98886.03
2023-04-30T12:21:47.804Z,98880.88
2023-04-30T12:24:19.098Z,98888.28
2023-04-30T12:26:46.809Z,98865.97
2023-04-30T12:29:15.888Z,98875.84
2023-04-30T12:31:42.789Z,98880.66
2023-04-30T12:34:11.957Z,98872.03
2023-04-30T12:36:39.957Z,98877.72
2023-04-30T12:39:07.494Z,98870.72
2023-04-30T12:41:39.786Z,98879.72
2023-04-30T12:44:15.159Z,98874.69
2023-04-30T12:46:41.695Z,98872.03
2023-04-30T12:49:08.098Z,98866.97
2023-04-30T12:51:35.628Z,98857.25
2023-04-30T12:54:02.201Z,98856.03
2023-04-30T12:56:29.612Z,98848.91
2023-04-30T12:58:55.952Z,98852.69
2023-04-30T13:01:22.530Z,98847.25
2023-04-30T13:03:48.984Z,98845.50
2023-04-30T13:06:15.543Z,98839.44
2023-04-30T13:08:53.995Z,98845.13
2023-04-30T13:11:23.060Z,98833.84
2023-04-30T13:13:49.408Z,98825.03
2023-04-30T13:16:15.789Z,98835.16
2023-04-30T13:18:42.146Z,98835.13
2023-04-30T13:21:08.452Z,98839.13
2023-04-30T13:23:41.525Z,98830.13
2023-04-30T13:26:15.335Z,98835.88
2023-04-30T13:28:41.663Z,98825.22
2023-04-30T13:31:08.019Z,98820.75
2023-04-30T13:33:34.349Z,98823.28
2023-04-30T13:36:00.659Z,98812.16
2023-04-30T13:38:27.044Z,98813.59
2023-04-30T13:40:53.347Z,98818.03
2023-04-30T13:43:19.689Z,98818.31
2023-04-30T13:45:45.995Z,98811.28
2023-04-30T13:48:12.307Z,98808.56
2023-04-30T13:50:38.612Z,98805.28
2023-04-30T13:53:04.961Z,98804.59
2023-04-30T13:55:31.286Z,98802.78
2023-04-30T13:57:57.608Z,98811.94
2023-04-30T14:00:23.964Z,98808.38
2023-04-30T14:02:50.474Z,98801.34
2023-04-30T14:05:16.883Z,98799.03
2023-04-30T14:07:43.304Z,98796.00
2023-04-30T14:10:09.765Z,98788.28
2023-04-30T14:12:36.153Z,98788.63
2023-04-30T14:15:02.481Z,98778.38
2023-04-30T14:17:29.028Z,98779.78
2023-04-30T14:19:55.588Z,98774.72
2023-04-30T14:22:22.133Z,98775.63
2023-04-30T14:24:48.449Z,98772.75
2023-04-30T14:27:14.759Z,98761.34
2023-04-30T14:29:41.068Z,98772.91
2023-04-30T14:32:07.396Z,98784.34
2023-04-30T14:34:33.733Z,98778.94
2023-04-30T14:37:02.661Z,98775.78
2023-04-30T14:39:29.079Z,98773.13
2023-04-30T14:41:55.397Z,98769.78
2023-04-30T14:44:22.686Z,98786.16
2023-04-30T14:46:50.008Z,98783.78
2023-04-30T14:49:16.420Z,98780.03
2023-04-30T14:51:42.746Z,98766.91
2023-04-30T14:54:09.457Z,98774.44
2023-04-30T14:56:35.822Z,98776.88
2023-04-30T14:59:02.143Z,98768.59
2023-04-30T15:01:28.815Z,98772.97
2023-04-30T15:03:55.260Z,98770.91
2023-04-30T15:06:24.470Z,98771.66
2023-04-30T15:08:50.878Z,98773.72
2023-04-30T15:11:18.164Z,98773.09
2023-04-30T15:13:44.495Z,98762.19
2023-04-30T15:16:12.025Z,98770.19
2023-04-30T15:18:38.546Z,98763.53
2023-04-30T15:21:05.063Z,98764.75
2023-04-30T15:23:31.398Z,98770.91
2023-04-30T15:25:57.716Z,98764.91
2023-04-30T15:28:24.072Z,98756.91
2023-04-30T15:30:51.462Z,98763.88
2023-04-30T15:33:18.115Z,98752.31
2023-04-30T15:35:45.008Z,98764.59
2023-04-30T15:38:11.345Z,98758.53
2023-04-30T15:40:37.769Z,98763.72
2023-04-30T15:43:04.645Z,98750.25
2023-04-30T15:45:30.979Z,98754.19
2023-04-30T15:47:57.343Z,98731.72
2023-04-30T15:50:24.718Z,98758.81
2023-04-30T15:52:52.096Z,98750.19
2023-04-30T15:55:18.491Z,98752.66
2023-04-30T15:57:44.809Z,98751.72
2023-04-30T16:00:11.853Z,98752.03
2023-04-30T16:02:38.322Z,98741.88
2023-04-30T16:05:04.805Z,98748.72
2023-04-30T16:07:31.699Z,98741.84
2023-04-30T16:10:01.496Z,98744.09
2023-04-30T16:12:27.818Z,98751.53
2023-04-30T16:14:54.385Z,98746.81
2023-04-30T16:17:20.778Z,98741.41
2023-04-30T16:19:47.181Z,98749.22
2023-04-30T16:22:13.641Z,98745.16
2023-04-30T16:24:39.931Z,98732.25
2023-04-30T16:27:06.358Z,98739.31
2023-04-30T16:29:32.670Z,98738.47
2023-04-30T16:31:59.029Z,98735.69
2023-04-30T16:34:25.385Z,98723.91
2023-04-30T16:36:51.715Z,98735.75
2023-04-30T16:39:18.045Z,98731.44
2023-04-30T16:41:44.355Z,98731.97
2023-04-30T16:44:10.673Z,98725.78
2023-04-30T16:46:37.078Z,98726.66
2023-04-30T16:49:03.448Z,98723.06
2023-04-30T16:51:29.847Z,98715.47
2023-04-30T16:53:56.160Z,98728.69
2023-04-30T16:56:23.557Z,98719.63
2023-04-30T16:58:49.863Z,98711.72
2023-04-30T17:01:16.208Z,98714.59
2023-04-30T17:03:42.606Z,98716.53
2023-04-30T17:06:09.050Z,98712.97
2023-04-30T17:08:35.413Z,98700.88
2023-04-30T17:11:01.728Z,98715.88
2023-04-30T17:13:28.147Z,98719.41
2023-04-30T17:15:54.484Z,98707.94
2023-04-30T17:18:20.971Z,98714.41
2023-04-30T17:20:47.372Z,98695.09
2023-04-30T17:23:13.679Z,98725.63
2023-04-30T17:25:40.005Z,98730.09
2023-04-30T17:28:06.326Z,98713.75
2023-04-30T17:30:32.658Z,98727.53
2023-04-30T17:32:59.028Z,98725.78
2023-04-30T17:35:25.405Z,98727.13
2023-04-30T17:37:51.726Z,98723.69
2023-04-30T17:40:18.195Z,98726.72
2023-04-30T17:42:44.507Z,98721.03
2023-04-30T17:45:11.878Z,98705.34
2023-04-30T17:47:38.382Z,98714.75
2023-04-30T17:50:06.012Z,98723.03
2023-04-30T17:52:32.326Z,98702.94
2023-04-30T17:54:58.717Z,98708.72
2023-04-30T17:57:25.046Z,98718.28
2023-04-30T17:59:52.400Z,98713.59
2023-04-30T18:02:18.789Z,98704.22
2023-04-30T18:04:45.266Z,98712.06
2023-04-30T18:07:11.592Z,98708.69
2023-04-30T18:09:37.913Z,98717.50
2023-04-30T18:12:04.286Z,98719.63
2023-04-30T18:14:30.614Z,98717.66
2023-04-30T18:16:56.977Z,98708.06
2023-04-30T18:19:23.306Z,98693.75
2023-04-30T18:21:49.724Z,98712.19
2023-04-30T18:24:16.048Z,98706.84
2023-04-30T18:26:42.468Z,98722.16
2023-04-30T18:29:08.791Z,98716.69
2023-04-30T18:31:35.115Z,98709.69
2023-04-30T18:34:01.472Z,98691.78
2023-04-30T18:36:27.774Z,98712.84
2023-04-30T18:38:54.094Z,98717.38
2023-04-30T18:41:21.459Z,98701.97
2023-04-30T18:43:47.783Z,98700.13
2023-04-30T18:46:14.181Z,98713.69
2023-04-30T18:48:40.549Z,98719.78
2023-04-30T18:51:06.856Z,98692.06
2023-04-30T18:53:35.092Z,98714.31
2023-04-30T18:56:01.419Z,98711.41
2023-04-30T18:58:27.766Z,98717.13
2023-04-30T19:00:57.495Z,98724.53
2023-04-30T19:03:23.910Z,98713.84
2023-04-30T19:05:53.817Z,98716.97
2023-04-30T19:08:20.135Z,98723.06
2023-04-30T19:10:50.755Z,98729.72
2023-04-30T19:13:17.087Z,98714.63
2023-04-30T19:15:43.473Z,98720.75
2023-04-30T19:18:09.861Z,98741.72
2023-04-30T19:20:36.208Z,98738.53
2023-04-30T19:23:02.585Z,98737.72
2023-04-30T19:25:29.320Z,98738.06
2023-04-30T19:27:55.645Z,98739.38
2023-04-30T19:30:22.106Z,98737.56
2023-04-30T19:32:48.457Z,98741.00
2023-04-30T19:35:15.142Z,98729.53
2023-04-30T19:37:41.455Z,98730.41
2023-04-30T19:40:10.887Z,98726.19
2023-04-30T19:42:40.110Z,98733.38
2023-04-30T19:45:07.854Z,98737.66
2023-04-30T19:47:34.186Z,98721.72
2023-04-30T19:50:00.526Z,98733.72
2023-04-30T19:52:27.870Z,98722.72
2023-04-30T19:54:54.259Z,98723.84
2023-04-30T19:57:20.568Z,98735.97
2023-04-30T19:59:46.868Z,98736.44
2023-04-30T20:02:13.904Z,98738.63
2023-04-30T20:04:40.284Z,98745.47
2023-04-30T20:07:06.819Z,98728.03
2023-04-30T20:09:33.143Z,98739.25
2023-04-30T20:11:59.584Z,98730.75
2023-04-30T20:14:25.900Z,98749.41
2023-04-30T20:16:52.235Z,98743.22
2023-04-30T20:19:23.089Z,98749.84
2023-04-30T20:21:50.466Z,98741.94
2023-04-30T20:24:16.806Z,98736.59
2023-04-30T20:26:44.174Z,98736.44
2023-04-30T20:29:10.496Z,98735.09
2023-04-30T20:31:36.945Z,98748.03
2023-04-30T20:34:03.294Z,98730.81
2023-04-30T20:36:29.848Z,98739.56
2023-04-30T20:38:56.272Z,98735.91
2023-04-30T20:41:22.621Z,98732.03
2023-04-30T20:43:50.007Z,98728.59
2023-04-30T20:46:16.373Z,98723.84
2023-04-30T20:48:42.794Z,98708.75
2023-04-30T20:51:09.168Z,98726.16
2023-04-30T20:53:35.570Z,98706.66
2023-04-30T20:56:01.885Z,98710.72
2023-04-30T20:58:28.274Z,98704.31
2023-04-30T21:00:54.638Z,98714.63
2023-04-30T21:03:21.140Z,98704.34
2023-04-30T21:05:48.652Z,98707.16
2023-04-30T21:08:14.965Z,98706.03
2023-04-30T21:10:41.552Z,98695.97
2023-04-30T21:13:07.874Z,98702.53
2023-04-30T21:15:39.856Z,98712.44
2023-04-30T21:18:06.242Z,98707.94
2023-04-30T21:20:32.631Z,98704.03
2023-04-30T21:22:58.951Z,98695.06
2023-04-30T21:25:25.332Z,98692.63
2023-04-30T21:27:51.660Z,98693.38
2023-04-30T21:30:17.978Z,98687.94
2023-04-30T21:32:44.669Z,98683.63
2023-04-30T21:35:11.030Z,98671.81
2023-04-30T21:37:37.354Z,98684.47
2023-04-30T21:40:03.893Z,98691.44
2023-04-30T21:42:30.205Z,98676.88
2023-04-30T21:44:56.516Z,98677.19
2023-04-30T21:47:22.937Z,98683.69
2023-04-30T21:49:49.262Z,98680.94
2023-04-30T21:52:15.566Z,98670.53
2023-04-30T21:54:42.956Z,98666.50
2023-04-30T21:57:09.281Z,98682.19
2023-04-30T21:59:35.622Z,98672.59
2023-04-30T22:02:07.208Z,98678.63
2023-04-30T22:04:36.635Z,98681.91
2023-04-30T22:07:02.962Z,98678.63
2023-04-30T22:09:29.266Z,98680.94
2023-04-30T22:11:55.583Z,98673.34
2023-04-30T22:14:21.910Z,98679.41
2023-04-30T22:16:48.307Z,98676.31
2023-04-30T22:19:15.723Z,98674.41
2023-04-30T22:21:42.065Z,98674.91
2023-04-30T22:24:08.421Z,98675.09
2023-04-30T22:26:34.734Z,98640.56
2023-04-30T22:29:01.052Z,98660.19
2023-04-30T22:31:27.430Z,98664.47
2023-04-30T22:33:53.789Z,98662.28
2023-04-30T22:36:20.115Z,98650.91
2023-04-30T22:38:46.450Z,98666.41
2023-04-30T22:41:12.783Z,98659.25
2023-04-30T22:43:39.193Z,98664.66
2023-04-30T22:46:05.523Z,98658.72
2023-04-30T22:48:31.884Z,98657.81
2023-04-30T22:50:58.201Z,98663.69
2023-04-30T22:53:24.537Z,98663.84
2023-04-30T22:55:50.937Z,98658.03
2023-04-30T22:58:17.249Z,98653.69
2023-04-30T23:00:43.626Z,98656.78
2023-04-30T23:03:09.982Z,98656.41
2023-04-30T23:05:36.457Z,98646.44
2023-04-30T23:08:02.986Z,98656.72
2023-04-30T23:10:29.295Z,98664.75
2023-04-30T23:12:55.637Z,98664.53
2023-04-30T23:15:22.659Z,98667.47
2023-04-30T23:17:49.052Z,98669.53
2023-04-30T23:20:15.458Z,98659.75
2023-04-30T23:22:41.820Z,98659.09
2023-04-30T23:25:08.179Z,98664.34
2023-04-30T23:27:34.527Z,98658.91
2023-04-30T23:30:00.835Z,98665.09
2023-04-30T23:32:27.347Z,98660.28
2023-04-30T23:34:53.819Z,98658.31
2023-04-30T23:37:21.183Z,98660.22
2023-04-30T23:39:47.520Z,98652.59
2023-04-30T23:42:13.842Z,98644.53
2023-04-30T23:44:40.159Z,98650.59
2023-04-30T23:47:06.479Z,98656.34
2023-04-30T23:49:33.853Z,98650.91
2023-04-30T23:52:00.193Z,98644.44
2023-04-30T23:54:26.506Z,98644.28
2023-04-30T23:56:52.855Z,98639.88
2023-04-30T23:59:19.162Z,98628.72
